createdAt,value
2022-12-05T00:01:54.855Z,7.99
2022-12-05T00:04:23.182Z,8.01
2022-12-05T00:06:52.827Z,7.99
2022-12-05T00:09:21.035Z,8.00
2022-12-05T00:11:49.113Z,8.02
2022-12-05T00:14:17.205Z,8.01
2022-12-05T00:16:45.897Z,8.00
2022-12-05T00:19:16.409Z,8.00
2022-12-05T00:21:45.313Z,8.01
2022-12-05T00:24:16.761Z,8.00
2022-12-05T00:26:44.806Z,8.00
2022-12-05T00:29:13.686Z,8.02
2022-12-05T00:31:42.133Z,8.08
2022-12-05T00:34:10.375Z,8.08
2022-12-05T00:36:38.967Z,8.07
2022-12-05T00:39:09.303Z,8.11
2022-12-05T00:41:39.198Z,8.03
2022-12-05T00:44:07.493Z,8.06
2022-12-05T00:46:36.738Z,8.04
2022-12-05T00:49:06.919Z,8.02
2022-12-05T00:51:36.898Z,8.02
2022-12-05T00:54:08.906Z,8.05
2022-12-05T00:56:38.727Z,8.00
2022-12-05T00:59:07.860Z,7.98
2022-12-05T01:01:38.142Z,7.97
2022-12-05T01:04:08.427Z,7.95
2022-12-05T01:06:36.646Z,8.00
2022-12-05T01:09:06.686Z,7.98
2022-12-05T01:11:40.799Z,7.98
2022-12-05T01:14:11.529Z,7.95
2022-12-05T01:16:41.053Z,7.93
2022-12-05T01:19:13.163Z,7.90
2022-12-05T01:21:41.303Z,7.84
2022-12-05T01:24:10.049Z,7.81
2022-12-05T01:26:38.630Z,7.80
2022-12-05T01:29:07.178Z,7.76
2022-12-05T01:31:38.619Z,7.75
2022-12-05T01:34:07.420Z,7.69
2022-12-05T01:36:36.027Z,7.66
2022-12-05T01:39:04.900Z,7.66
2022-12-05T01:41:35.791Z,7.68
2022-12-05T01:44:06.248Z,7.67
2022-12-05T01:46:38.165Z,7.68
2022-12-05T01:49:10.932Z,7.65
2022-12-05T01:51:41.497Z,7.65
2022-12-05T01:54:11.641Z,7.66
2022-12-05T01:56:43.294Z,7.65
2022-12-05T01:59:12.921Z,7.66
2022-12-05T02:01:42.756Z,7.68
2022-12-05T02:04:11.976Z,7.68
2022-12-05T02:06:40.227Z,7.71
2022-12-05T02:09:08.536Z,7.73
2022-12-05T02:11:43.085Z,7.78
2022-12-05T02:14:21.972Z,7.84
2022-12-05T02:16:59.827Z,7.82
2022-12-05T02:20:08.490Z,7.85
2022-12-05T02:23:04.995Z,7.89
2022-12-05T02:26:11.403Z,7.94
2022-12-05T02:29:04.381Z,7.94
2022-12-05T02:31:38.389Z,7.98
2022-12-05T02:34:11.852Z,7.97
2022-12-05T02:36:45.924Z,7.97
2022-12-05T02:39:18.967Z,7.88
2022-12-05T02:41:52.151Z,7.85
2022-12-05T02:44:29.492Z,7.85
2022-12-05T02:47:01.436Z,7.83
2022-12-05T02:49:34.931Z,7.81
2022-12-05T02:52:06.002Z,7.80
2022-12-05T02:54:39.336Z,7.80
2022-12-05T02:57:08.695Z,7.77
2022-12-05T02:59:37.753Z,7.76
2022-12-05T03:02:09.239Z,7.73
2022-12-05T03:04:37.534Z,7.70
2022-12-05T03:07:10.178Z,7.75
2022-12-05T03:09:41.574Z,7.76
2022-12-05T03:12:14.356Z,7.79
2022-12-05T03:14:47.589Z,7.73
2022-12-05T03:17:23.552Z,7.77
2022-12-05T03:19:58.615Z,7.74
2022-12-05T03:22:33.976Z,7.77
2022-12-05T03:25:03.603Z,7.77
2022-12-05T03:27:41.243Z,7.68
2022-12-05T03:30:11.776Z,7.68
2022-12-05T03:32:46.823Z,7.64
2022-12-05T03:35:22.629Z,7.68
2022-12-05T03:37:56.844Z,7.68
2022-12-05T03:40:33.391Z,7.67
2022-12-05T03:43:10.229Z,7.68
2022-12-05T03:45:43.512Z,7.70
2022-12-05T03:48:21.433Z,7.71
2022-12-05T03:50:53.769Z,7.68
2022-12-05T03:53:27.030Z,7.60
2022-12-05T03:56:02.904Z,7.52
2022-12-05T03:58:37.402Z,7.46
2022-12-05T04:01:08.210Z,7.40
2022-12-05T04:03:43.476Z,7.45
2022-12-05T04:06:18.804Z,7.46
2022-12-05T04:08:52.215Z,7.51
2022-12-05T04:11:24.626Z,7.55
2022-12-05T04:13:56.042Z,7.52
2022-12-05T04:16:43.560Z,7.54
2022-12-05T04:19:19.175Z,7.52
2022-12-05T04:21:50.249Z,7.49
2022-12-05T04:24:39.798Z,7.40
2022-12-05T04:27:16.901Z,7.52
2022-12-05T04:29:54.414Z,7.41
2022-12-05T04:32:27.715Z,7.42
2022-12-05T04:35:02.860Z,7.43
2022-12-05T04:37:36.872Z,7.46
2022-12-05T04:40:11.188Z,7.49
2022-12-05T04:42:42.761Z,7.52
2022-12-05T04:45:15.153Z,7.54
2022-12-05T04:47:46.391Z,7.49
2022-12-05T04:50:17.963Z,7.48
2022-12-05T04:52:51.611Z,7.51
2022-12-05T04:55:26.111Z,7.50
2022-12-05T04:58:05.741Z,7.45
2022-12-05T05:00:39.805Z,7.41
2022-12-05T05:03:14.177Z,7.39
2022-12-05T05:05:48.613Z,7.37
2022-12-05T05:08:21.597Z,7.38
2022-12-05T05:10:59.369Z,7.38
2022-12-05T05:13:27.719Z,7.34
2022-12-05T05:15:55.916Z,7.33
2022-12-05T05:18:24.099Z,7.33
2022-12-05T05:20:53.745Z,7.29
2022-12-05T05:23:21.875Z,7.28
2022-12-05T05:25:54.624Z,7.28
2022-12-05T05:28:23.547Z,7.30
2022-12-05T05:30:51.929Z,7.30
2022-12-05T05:33:20.173Z,7.27
2022-12-05T05:35:48.306Z,7.26
2022-12-05T05:38:17.847Z,7.25
2022-12-05T05:40:46.015Z,7.24
2022-12-05T05:43:14.178Z,7.25
2022-12-05T05:45:42.293Z,7.28
2022-12-05T05:48:10.351Z,7.31
2022-12-05T05:50:38.592Z,7.36
2022-12-05T05:53:06.728Z,7.40
2022-12-05T05:55:36.139Z,7.40
2022-12-05T05:58:04.212Z,7.38
2022-12-05T06:00:32.332Z,7.39
2022-12-05T06:03:00.633Z,7.40
2022-12-05T06:05:28.871Z,7.41
2022-12-05T06:07:57.011Z,7.40
2022-12-05T06:10:25.205Z,7.40
2022-12-05T06:12:54.686Z,7.39
2022-12-05T06:15:23.255Z,7.38
2022-12-05T06:17:51.495Z,7.42
2022-12-05T06:20:19.824Z,7.45
2022-12-05T06:22:47.899Z,7.46
2022-12-05T06:25:16.051Z,7.46
2022-12-05T06:27:44.171Z,7.42
2022-12-05T06:30:14.555Z,7.42
2022-12-05T06:32:42.726Z,7.43
2022-12-05T06:35:15.832Z,7.47
2022-12-05T06:37:44.467Z,7.45
2022-12-05T06:40:13.687Z,7.47
2022-12-05T06:42:41.735Z,7.47
2022-12-05T06:45:10.750Z,7.45
2022-12-05T06:47:40.304Z,7.45
2022-12-05T06:50:09.800Z,7.45
2022-12-05T06:52:37.907Z,7.48
2022-12-05T06:55:07.000Z,7.53
2022-12-05T06:57:35.307Z,7.54
2022-12-05T07:00:17.874Z,7.56
2022-12-05T07:02:47.640Z,7.57
2022-12-05T07:05:15.759Z,7.58
2022-12-05T07:07:43.881Z,7.61
2022-12-05T07:10:12.026Z,7.62
2022-12-05T07:12:40.130Z,7.57
2022-12-05T07:15:09.143Z,7.52
2022-12-05T07:17:39.153Z,7.46
2022-12-05T07:20:10.501Z,7.40
2022-12-05T07:22:39.041Z,7.36
2022-12-05T07:25:07.831Z,7.37
2022-12-05T07:27:35.970Z,7.36
2022-12-05T07:30:04.321Z,7.35
2022-12-05T07:32:34.482Z,7.35
2022-12-05T07:35:02.784Z,7.38
2022-12-05T07:37:32.244Z,7.40
2022-12-05T07:40:00.749Z,7.41
2022-12-05T07:42:29.291Z,7.44
2022-12-05T07:44:57.473Z,7.45
2022-12-05T07:47:25.594Z,7.47
2022-12-05T07:49:53.634Z,7.47
2022-12-05T07:52:21.731Z,7.45
2022-12-05T07:54:51.218Z,7.43
2022-12-05T07:57:19.281Z,7.39
2022-12-05T07:59:47.632Z,7.40
2022-12-05T08:02:15.847Z,7.35
2022-12-05T08:04:44.050Z,7.32
2022-12-05T08:07:12.363Z,7.26
2022-12-05T08:09:40.476Z,7.22
2022-12-05T08:12:10.117Z,7.20
2022-12-05T08:14:38.233Z,7.16
2022-12-05T08:17:06.459Z,7.11
2022-12-05T08:19:34.753Z,7.09
2022-12-05T08:22:02.862Z,7.14
2022-12-05T08:24:31.025Z,7.18
2022-12-05T08:26:59.258Z,7.20
2022-12-05T08:29:28.834Z,7.19
2022-12-05T08:31:57.037Z,7.20
2022-12-05T08:34:25.185Z,7.20
2022-12-05T08:36:53.389Z,7.21
2022-12-05T08:39:21.772Z,7.23
2022-12-05T08:41:50.793Z,7.27
2022-12-05T08:44:19.495Z,7.30
2022-12-05T08:46:51.196Z,7.32
2022-12-05T08:49:20.365Z,7.33
2022-12-05T08:51:48.633Z,7.35
2022-12-05T08:54:16.829Z,7.36
2022-12-05T08:56:45.082Z,7.38
2022-12-05T08:59:13.387Z,7.38
2022-12-05T09:01:42.369Z,7.34
2022-12-05T09:04:12.596Z,7.38
2022-12-05T09:06:42.035Z,7.37
2022-12-05T09:09:12.614Z,7.36
2022-12-05T09:11:46.695Z,7.27
2022-12-05T09:14:15.287Z,7.26
2022-12-05T09:16:45.897Z,7.28
2022-12-05T09:19:17.879Z,7.30
2022-12-05T09:21:46.460Z,7.31
2022-12-05T09:24:15.614Z,7.32
2022-12-05T09:26:44.119Z,7.30
2022-12-05T09:29:17.207Z,7.33
2022-12-05T09:31:47.928Z,7.34
2022-12-05T09:34:18.647Z,7.38
2022-12-05T09:36:49.945Z,7.42
2022-12-05T09:39:18.072Z,7.46
2022-12-05T09:42:06.347Z,7.45
2022-12-05T09:44:43.403Z,7.43
2022-12-05T09:47:22.148Z,7.45
2022-12-05T09:49:55.027Z,7.50
2022-12-05T09:52:28.211Z,7.57
2022-12-05T09:54:57.384Z,7.60
2022-12-05T09:57:34.218Z,7.61
2022-12-05T10:00:04.128Z,7.61
2022-12-05T10:02:45.517Z,7.65
2022-12-05T10:05:20.732Z,7.68
2022-12-05T10:07:57.337Z,7.71
2022-12-05T10:10:41.521Z,7.76
2022-12-05T10:13:30.336Z,7.81
2022-12-05T10:16:02.141Z,7.86
2022-12-05T10:18:38.545Z,7.90
2022-12-05T10:21:17.349Z,7.93
2022-12-05T10:23:58.084Z,7.98
2022-12-05T10:26:31.471Z,7.98
2022-12-05T10:29:09.167Z,8.00
2022-12-05T10:31:40.379Z,8.02
2022-12-05T10:34:16.470Z,7.96
2022-12-05T10:36:56.440Z,7.98
2022-12-05T10:39:24.733Z,7.99
2022-12-05T10:41:53.045Z,8.02
2022-12-05T10:44:21.305Z,8.07
2022-12-05T10:46:50.088Z,8.09
2022-12-05T10:49:20.098Z,8.09
2022-12-05T10:51:50.335Z,8.08
2022-12-05T10:54:22.200Z,8.08
2022-12-05T10:56:51.966Z,8.07
2022-12-05T10:59:22.231Z,8.11
2022-12-05T11:01:53.961Z,8.12
2022-12-05T11:04:29.801Z,8.14
2022-12-05T11:07:02.046Z,8.13
2022-12-05T11:09:33.219Z,8.16
2022-12-05T11:12:22.558Z,8.12
2022-12-05T11:15:03.729Z,8.18
2022-12-05T11:17:35.586Z,8.20
2022-12-05T11:20:14.011Z,8.17
2022-12-05T11:22:48.478Z,8.12
2022-12-05T11:25:26.635Z,8.14
2022-12-05T11:27:59.759Z,8.07
2022-12-05T11:30:31.089Z,8.07
2022-12-05T11:33:21.218Z,7.97
2022-12-05T11:35:50.527Z,7.91
2022-12-05T11:38:25.206Z,7.90
2022-12-05T11:40:58.907Z,7.93
2022-12-05T11:44:04.807Z,7.94
2022-12-05T11:46:41.148Z,8.00
2022-12-05T11:49:33.306Z,8.03
2022-12-05T11:52:09.778Z,8.09
2022-12-05T11:55:05.344Z,8.11
2022-12-05T11:57:56.177Z,8.05
2022-12-05T12:00:28.734Z,8.02
2022-12-05T12:03:33.092Z,7.99
2022-12-05T12:06:16.305Z,8.00
2022-12-05T12:08:56.478Z,7.99
2022-12-05T12:11:37.205Z,7.98
2022-12-05T12:14:15.275Z,7.97
2022-12-05T12:16:53.932Z,7.99
2022-12-05T12:19:39.884Z,8.00
2022-12-05T12:22:35.813Z,8.01
2022-12-05T12:25:23.939Z,7.94
2022-12-05T12:28:06.158Z,7.90
2022-12-05T12:30:49.162Z,7.86
2022-12-05T12:33:30.078Z,7.82
2022-12-05T12:36:06.803Z,7.85
2022-12-05T12:38:56.423Z,7.91
2022-12-05T12:41:52.932Z,7.92
2022-12-05T12:44:46.528Z,7.97
2022-12-05T12:47:22.779Z,8.00
2022-12-05T12:50:03.316Z,8.05
2022-12-05T12:52:50.577Z,8.09
2022-12-05T12:55:25.794Z,8.10
2022-12-05T12:58:07.167Z,8.14
2022-12-05T13:00:48.590Z,8.10
2022-12-05T13:03:22.739Z,8.05
2022-12-05T13:05:54.374Z,8.01
2022-12-05T13:08:28.681Z,7.92
2022-12-05T13:10:59.602Z,7.89
2022-12-05T13:13:33.644Z,7.91
2022-12-05T13:16:07.965Z,8.00
2022-12-05T13:18:36.736Z,8.02
2022-12-05T13:21:08.509Z,8.06
2022-12-05T13:23:44.893Z,8.09
2022-12-05T13:26:14.778Z,8.12
2022-12-05T13:28:51.592Z,8.10
2022-12-05T13:31:35.687Z,8.22
2022-12-05T13:34:04.099Z,8.17
2022-12-05T13:36:58.626Z,8.13
2022-12-05T13:39:44.381Z,8.11
2022-12-05T13:42:24.502Z,8.11
2022-12-05T13:44:55.958Z,8.12
2022-12-05T13:47:31.534Z,8.08
2022-12-05T13:50:10.789Z,8.07
2022-12-05T13:52:45.467Z,8.03
2022-12-05T13:55:24.189Z,7.98
2022-12-05T13:57:55.280Z,7.84
2022-12-05T14:00:32.467Z,7.78
2022-12-05T14:03:04.749Z,7.73
2022-12-05T14:05:53.318Z,7.68
2022-12-05T14:08:54.351Z,7.62
2022-12-05T14:11:23.001Z,7.67
2022-12-05T14:13:51.706Z,7.71
2022-12-05T14:16:50.732Z,7.71
2022-12-05T14:19:52.517Z,7.72
2022-12-05T14:22:51.932Z,7.76
2022-12-05T14:25:34.726Z,7.77
2022-12-05T14:28:19.392Z,7.77
2022-12-05T14:31:02.000Z,7.79
2022-12-05T14:33:30.257Z,7.78
2022-12-05T14:36:07.524Z,7.79
2022-12-05T14:38:37.945Z,7.82
2022-12-05T14:41:23.942Z,7.78
2022-12-05T14:43:54.909Z,7.78
2022-12-05T14:46:27.047Z,7.79
2022-12-05T14:48:56.184Z,7.81
2022-12-05T14:51:56.973Z,7.80
2022-12-05T14:54:26.077Z,7.83
2022-12-05T14:57:05.052Z,7.80
2022-12-05T14:59:36.522Z,7.81
2022-12-05T15:02:05.153Z,7.73
2022-12-05T15:04:41.835Z,7.70
2022-12-05T15:07:15.013Z,7.69
2022-12-05T15:09:52.097Z,7.68
2022-12-05T15:12:24.442Z,7.69
2022-12-05T15:15:02.501Z,7.73
2022-12-05T15:17:38.838Z,7.75
2022-12-05T15:20:16.771Z,7.73
2022-12-05T15:22:46.446Z,7.74
2022-12-05T15:25:24.611Z,7.73
2022-12-05T15:28:05.357Z,7.63
2022-12-05T15:30:37.498Z,7.62
2022-12-05T15:33:06.437Z,7.55
2022-12-05T15:35:35.517Z,7.52
2022-12-05T15:38:10.673Z,7.51
2022-12-05T15:40:38.790Z,7.50
2022-12-05T15:43:29.823Z,7.48
2022-12-05T15:46:23.852Z,7.48
2022-12-05T15:48:53.002Z,7.49
2022-12-05T15:51:24.687Z,7.49
2022-12-05T15:53:59.136Z,7.51
2022-12-05T15:56:30.386Z,7.51
2022-12-05T15:59:05.847Z,7.55
2022-12-05T16:01:40.833Z,7.56
2022-12-05T16:04:16.808Z,7.56
2022-12-05T16:06:48.614Z,7.58
2022-12-05T16:09:20.372Z,7.61
2022-12-05T16:11:56.024Z,7.64
2022-12-05T16:17:17.276Z,7.65
2022-12-05T16:19:49.505Z,7.65
2022-12-05T16:22:24.814Z,7.67
2022-12-05T16:25:01.188Z,7.72
2022-12-05T16:27:33.018Z,7.73
2022-12-05T16:30:22.960Z,7.74
2022-12-05T16:32:59.024Z,7.74
2022-12-05T16:35:33.986Z,7.76
2022-12-05T16:38:08.428Z,7.80
2022-12-05T16:40:38.693Z,7.79
2022-12-05T16:43:17.035Z,7.79
2022-12-05T16:45:46.705Z,7.81
2022-12-05T16:48:22.011Z,7.85
2022-12-05T16:50:51.422Z,7.86
2022-12-05T16:53:34.367Z,7.89
2022-12-05T16:56:05.875Z,7.93
2022-12-05T16:58:34.442Z,7.96
2022-12-05T17:01:04.577Z,7.98
2022-12-05T17:03:34.808Z,7.99
2022-12-05T17:06:03.699Z,7.94
2022-12-05T17:08:31.937Z,7.94
2022-12-05T17:11:02.101Z,7.93
2022-12-05T17:13:32.995Z,7.89
2022-12-05T17:16:01.268Z,7.88
2022-12-05T17:18:31.702Z,7.88
2022-12-05T17:21:03.182Z,7.92
2022-12-05T17:23:31.298Z,7.94
2022-12-05T17:26:00.923Z,7.96
2022-12-05T17:28:29.173Z,7.99
2022-12-05T17:30:58.723Z,8.01
2022-12-05T17:33:26.924Z,8.01
2022-12-05T17:35:55.030Z,8.00
2022-12-05T17:38:23.432Z,8.00
2022-12-05T17:40:51.792Z,7.96
2022-12-05T17:43:24.820Z,7.89
2022-12-05T17:45:54.768Z,7.85
2022-12-05T17:48:26.493Z,7.82
2022-12-05T17:50:57.749Z,7.86
2022-12-05T17:53:26.691Z,7.86
2022-12-05T17:55:54.978Z,7.94
2022-12-05T17:58:23.047Z,7.97
2022-12-05T18:00:51.181Z,7.99
2022-12-05T18:03:19.802Z,8.04
2022-12-05T18:05:49.529Z,8.04
2022-12-05T18:08:18.202Z,8.05
2022-12-05T18:10:48.416Z,8.05
2022-12-05T18:13:17.675Z,8.08
2022-12-05T18:15:48.771Z,8.11
2022-12-05T18:18:18.320Z,8.13
2022-12-05T18:20:46.731Z,8.12
2022-12-05T18:23:16.407Z,8.11
2022-12-05T18:25:44.536Z,8.09
2022-12-05T18:28:17.768Z,8.03
2022-12-05T18:30:47.894Z,8.01
2022-12-05T18:33:16.018Z,8.03
2022-12-05T18:35:44.086Z,8.03
2022-12-05T18:38:12.549Z,8.02
2022-12-05T18:40:42.324Z,8.15
2022-12-05T18:43:10.546Z,8.25
2022-12-05T18:45:38.807Z,8.17
2022-12-05T18:48:37.772Z,8.18
2022-12-05T18:50:55.284Z,8.15
2022-12-05T18:53:23.703Z,8.18
2022-12-05T18:56:20.423Z,8.20
2022-12-05T18:58:41.883Z,8.19
2022-12-05T19:01:12.528Z,8.13
2022-12-05T19:03:41.137Z,8.17
2022-12-05T19:06:13.713Z,8.13
2022-12-05T19:08:42.170Z,8.14
2022-12-05T19:11:12.394Z,8.11
2022-12-05T19:13:40.871Z,8.08
2022-12-05T19:16:14.257Z,8.05
2022-12-05T19:18:56.172Z,8.04
2022-12-05T19:21:24.918Z,8.05
2022-12-05T19:23:53.340Z,8.00
2022-12-05T19:26:23.818Z,7.93
2022-12-05T19:28:52.070Z,7.91
2022-12-05T19:31:22.606Z,7.88
2022-12-05T19:33:52.678Z,7.85
2022-12-05T19:36:22.788Z,7.80
2022-12-05T19:38:53.137Z,7.76
2022-12-05T19:41:25.100Z,7.75
2022-12-05T19:43:54.623Z,7.71
2022-12-05T19:46:25.971Z,7.71
2022-12-05T19:48:54.435Z,7.72
2022-12-05T19:51:22.717Z,7.71
2022-12-05T19:53:51.273Z,7.68
2022-12-05T19:56:21.687Z,7.69
2022-12-05T19:58:52.448Z,7.65
2022-12-05T20:01:22.649Z,7.65
2022-12-05T20:03:52.875Z,7.65
2022-12-05T20:06:21.565Z,7.66
2022-12-05T20:08:52.491Z,7.61
2022-12-05T20:11:24.868Z,7.62
2022-12-05T20:13:56.714Z,7.62
2022-12-05T20:16:27.282Z,7.64
2022-12-05T20:18:59.055Z,7.55
2022-12-05T20:21:29.237Z,7.61
2022-12-05T20:23:59.232Z,7.63
2022-12-05T20:26:29.774Z,7.56
2022-12-05T20:29:00.817Z,7.59
2022-12-05T20:31:30.520Z,7.61
2022-12-05T20:33:59.071Z,7.60
2022-12-05T20:36:28.843Z,7.58
2022-12-05T20:38:58.257Z,7.56
2022-12-05T20:41:27.348Z,7.53
2022-12-05T20:43:57.605Z,7.47
2022-12-05T20:46:28.435Z,7.47
2022-12-05T20:48:57.408Z,7.46
2022-12-05T20:51:27.612Z,7.48
2022-12-05T20:53:56.829Z,7.50
2022-12-05T20:56:26.502Z,7.54
2022-12-05T20:58:57.100Z,7.52
2022-12-05T21:01:28.248Z,7.53
2022-12-05T21:03:57.057Z,7.53
2022-12-05T21:06:26.764Z,7.52
2022-12-05T21:08:55.316Z,7.49
2022-12-05T21:11:24.717Z,7.49
2022-12-05T21:13:52.953Z,7.49
2022-12-05T21:16:23.141Z,7.47
2022-12-05T21:18:53.461Z,7.47
2022-12-05T21:21:23.811Z,7.46
2022-12-05T21:23:55.799Z,7.45
2022-12-05T21:26:25.846Z,7.50
2022-12-05T21:28:54.704Z,7.51
2022-12-05T21:31:25.254Z,7.53
2022-12-05T21:33:57.490Z,7.54
2022-12-05T21:36:27.806Z,7.57
2022-12-05T21:38:56.727Z,7.55
2022-12-05T21:41:25.705Z,7.56
2022-12-05T21:43:56.104Z,7.57
2022-12-05T21:46:24.889Z,7.60
2022-12-05T21:48:54.906Z,7.63
2022-12-05T21:51:24.098Z,7.67
2022-12-05T21:53:52.964Z,7.72
2022-12-05T21:56:23.078Z,7.74
2022-12-05T21:58:51.704Z,7.75
2022-12-05T22:01:23.167Z,7.72
2022-12-05T22:03:52.566Z,7.67
2022-12-05T22:06:22.155Z,7.65
2022-12-05T22:08:50.375Z,7.60
2022-12-05T22:11:20.549Z,7.60
2022-12-05T22:13:52.961Z,7.56
2022-12-05T22:16:21.633Z,7.56
2022-12-05T22:18:50.335Z,7.59
2022-12-05T22:21:20.734Z,7.57
2022-12-05T22:23:50.828Z,7.60
2022-12-05T22:26:20.845Z,7.59
2022-12-05T22:28:51.648Z,7.59
2022-12-05T22:31:21.433Z,7.55
2022-12-05T22:33:50.055Z,7.51
2022-12-05T22:36:20.192Z,7.48
2022-12-05T22:38:50.360Z,7.47
2022-12-05T22:41:20.063Z,7.45
2022-12-05T22:43:49.759Z,7.45
2022-12-05T22:46:20.312Z,7.42
2022-12-05T22:48:50.239Z,7.40
2022-12-05T22:51:19.709Z,7.43
2022-12-05T22:53:50.964Z,7.39
2022-12-05T22:56:20.563Z,7.40
2022-12-05T22:58:48.779Z,7.39
2022-12-05T23:01:19.013Z,7.43
2022-12-05T23:03:49.139Z,7.46
2022-12-05T23:06:18.971Z,7.46
2022-12-05T23:08:49.671Z,7.48
2022-12-05T23:11:18.846Z,7.52
2022-12-05T23:13:48.101Z,7.52
2022-12-05T23:16:20.782Z,7.52
2022-12-05T23:18:50.264Z,7.52
2022-12-05T23:21:21.446Z,7.51
2022-12-05T23:23:53.840Z,7.45
2022-12-05T23:26:24.069Z,7.41
2022-12-05T23:28:52.858Z,7.39
2022-12-05T23:31:21.695Z,7.37
2022-12-05T23:33:51.601Z,7.32
2022-12-05T23:36:20.469Z,7.32
2022-12-05T23:38:50.624Z,7.30
2022-12-05T23:41:20.807Z,7.30
2022-12-05T23:43:50.243Z,7.32
2022-12-05T23:46:21.441Z,7.31
2022-12-05T23:48:50.588Z,7.33
2022-12-05T23:51:23.804Z,7.32
2022-12-05T23:53:56.505Z,7.32
2022-12-05T23:56:27.564Z,7.33
2022-12-05T23:58:57.233Z,7.34
